createdAt,value
2022-11-16T00:01:40.863Z,10.20
2022-11-16T00:04:11.908Z,10.20
2022-11-16T00:06:39.953Z,10.20
2022-11-16T00:09:23.141Z,10.20
2022-11-16T00:11:51.584Z,10.10
2022-11-16T00:14:19.582Z,10.20
2022-11-16T00:16:48.933Z,10.10
2022-11-16T00:19:17.106Z,10.10
2022-11-16T00:21:44.812Z,10.10
2022-11-16T00:24:13.674Z,10.10
2022-11-16T00:26:41.680Z,10.10
2022-11-16T00:29:13.278Z,10.10
2022-11-16T00:31:40.913Z,10.10
2022-11-16T00:34:09.920Z,10.10
2022-11-16T00:36:37.631Z,10.00
2022-11-16T00:39:05.598Z,10.00
2022-11-16T00:41:33.265Z,9.90
2022-11-16T00:44:00.926Z,9.90
2022-11-16T00:46:28.564Z,10.00
2022-11-16T00:48:56.290Z,10.00
2022-11-16T00:51:25.275Z,10.00
2022-11-16T00:53:52.975Z,10.00
2022-11-16T00:56:20.692Z,10.00
2022-11-16T00:58:48.409Z,10.00
2022-11-16T01:01:16.161Z,9.90
2022-11-16T01:03:43.943Z,9.90
2022-11-16T01:06:13.953Z,9.90
2022-11-16T01:08:43.319Z,9.80
2022-11-16T01:11:29.197Z,9.80
2022-11-16T01:13:56.845Z,9.80
2022-11-16T01:16:24.832Z,9.80
2022-11-16T01:18:53.083Z,9.80
2022-11-16T01:21:21.289Z,9.80
2022-11-16T01:23:50.521Z,9.70
2022-11-16T01:26:18.384Z,9.70
2022-11-16T01:28:46.050Z,9.60
2022-11-16T01:31:13.735Z,9.70
2022-11-16T01:33:41.544Z,9.70
2022-11-16T01:36:14.233Z,9.70
2022-11-16T01:38:43.409Z,9.60
2022-11-16T01:41:15.273Z,9.70
2022-11-16T01:43:53.929Z,9.70
2022-11-16T01:46:21.828Z,9.70
2022-11-16T01:48:51.599Z,9.60
2022-11-16T01:51:19.567Z,9.70
2022-11-16T01:53:53.586Z,9.70
2022-11-16T01:56:23.001Z,9.60
2022-11-16T01:58:50.869Z,9.60
2022-11-16T02:01:18.637Z,9.60
2022-11-16T02:03:46.334Z,9.60
2022-11-16T02:06:34.986Z,9.50
2022-11-16T02:09:26.742Z,9.50
2022-11-16T02:12:03.375Z,9.40
2022-11-16T02:14:42.735Z,9.40
2022-11-16T02:17:16.930Z,9.40
2022-11-16T02:20:06.645Z,9.40
2022-11-16T02:22:53.095Z,9.30
2022-11-16T02:25:26.631Z,9.30
2022-11-16T02:28:05.059Z,9.30
2022-11-16T02:30:34.553Z,9.30
2022-11-16T02:33:04.983Z,9.20
2022-11-16T02:35:34.498Z,9.20
2022-11-16T02:38:04.141Z,9.20
2022-11-16T02:40:32.784Z,9.30
2022-11-16T02:43:02.123Z,9.30
2022-11-16T02:45:31.061Z,9.20
2022-11-16T02:48:02.421Z,9.20
2022-11-16T02:50:30.833Z,9.10
2022-11-16T02:52:58.542Z,9.20
2022-11-16T02:55:26.853Z,9.10
2022-11-16T02:57:55.949Z,9.10
2022-11-16T03:00:25.152Z,9.10
2022-11-16T03:02:57.425Z,9.00
2022-11-16T03:05:32.906Z,9.10
2022-11-16T03:08:05.253Z,9.10
2022-11-16T03:10:50.798Z,9.10
2022-11-16T03:13:19.438Z,9.10
2022-11-16T03:15:48.551Z,9.00
2022-11-16T03:18:17.061Z,8.90
2022-11-16T03:20:47.540Z,8.90
2022-11-16T03:23:15.362Z,9.00
2022-11-16T03:25:49.862Z,8.90
2022-11-16T03:28:20.941Z,8.90
2022-11-16T03:30:50.869Z,8.90
2022-11-16T03:33:20.456Z,8.90
2022-11-16T03:35:51.573Z,8.90
2022-11-16T03:38:20.376Z,8.90
2022-11-16T03:40:48.541Z,8.90
2022-11-16T03:43:16.892Z,8.90
2022-11-16T03:45:45.874Z,8.90
2022-11-16T03:48:13.838Z,8.90
2022-11-16T03:50:41.988Z,8.90
2022-11-16T03:53:11.118Z,8.80
2022-11-16T03:55:38.954Z,8.70
2022-11-16T03:58:06.727Z,8.70
2022-11-16T04:00:34.692Z,8.80
2022-11-16T04:03:02.599Z,8.80
2022-11-16T04:05:47.856Z,8.80
2022-11-16T04:08:35.729Z,8.80
2022-11-16T04:11:21.076Z,8.80
2022-11-16T04:14:09.222Z,8.80
2022-11-16T04:16:54.935Z,8.70
2022-11-16T04:19:40.030Z,8.70
2022-11-16T04:22:28.822Z,8.70
2022-11-16T04:24:59.492Z,8.70
2022-11-16T04:27:46.713Z,8.70
2022-11-16T04:30:14.507Z,8.70
2022-11-16T04:32:59.906Z,8.70
2022-11-16T04:35:41.521Z,8.70
2022-11-16T04:38:09.161Z,8.60
2022-11-16T04:40:38.404Z,8.50
2022-11-16T04:43:06.433Z,8.50
2022-11-16T04:45:51.452Z,8.50
2022-11-16T04:48:19.934Z,8.50
2022-11-16T04:50:48.019Z,8.50
2022-11-16T04:53:15.739Z,8.60
2022-11-16T04:55:44.769Z,8.60
2022-11-16T04:58:12.438Z,8.60
2022-11-16T05:00:40.109Z,8.60
2022-11-16T05:03:07.734Z,8.70
2022-11-16T05:05:35.393Z,8.60
2022-11-16T05:08:03.250Z,8.70
2022-11-16T05:10:30.904Z,8.70
2022-11-16T05:12:59.919Z,8.60
2022-11-16T05:15:27.633Z,8.70
2022-11-16T05:17:55.762Z,8.70
2022-11-16T05:20:41.174Z,8.70
2022-11-16T05:23:29.578Z,8.60
2022-11-16T05:25:56.367Z,8.50
2022-11-16T05:28:25.381Z,8.40
2022-11-16T05:30:53.102Z,8.40
2022-11-16T05:33:20.774Z,8.30
2022-11-16T05:35:50.270Z,8.30
2022-11-16T05:38:17.990Z,8.30
2022-11-16T05:40:45.656Z,8.40
2022-11-16T05:43:13.352Z,8.30
2022-11-16T05:45:43.336Z,8.30
2022-11-16T05:48:11.016Z,8.20
2022-11-16T05:50:42.755Z,8.00
2022-11-16T05:53:10.955Z,8.10
2022-11-16T05:55:38.681Z,8.20
2022-11-16T05:58:06.335Z,8.20
2022-11-16T06:00:34.038Z,8.30
2022-11-16T06:03:03.135Z,8.40
2022-11-16T06:05:30.885Z,8.40
2022-11-16T06:07:58.529Z,8.40
2022-11-16T06:10:26.303Z,8.40
2022-11-16T06:12:53.970Z,8.20
2022-11-16T06:15:21.700Z,8.20
2022-11-16T06:17:49.391Z,8.20
2022-11-16T06:20:18.658Z,8.10
2022-11-16T06:22:46.411Z,8.10
2022-11-16T06:25:14.133Z,8.10
2022-11-16T06:27:41.800Z,8.10
2022-11-16T06:30:09.790Z,8.10
2022-11-16T06:32:37.440Z,8.10
2022-11-16T06:35:05.413Z,8.00
2022-11-16T06:37:34.595Z,8.10
2022-11-16T06:40:02.234Z,8.20
2022-11-16T06:42:29.959Z,8.10
2022-11-16T06:44:57.634Z,8.00
2022-11-16T06:47:25.326Z,8.10
2022-11-16T06:49:52.993Z,8.10
2022-11-16T06:52:20.668Z,8.00
2022-11-16T06:54:49.705Z,8.00
2022-11-16T06:57:17.409Z,8.00
2022-11-16T06:59:45.044Z,8.00
2022-11-16T07:02:12.919Z,7.90
2022-11-16T07:04:40.607Z,7.90
2022-11-16T07:07:08.361Z,7.90
2022-11-16T07:09:36.072Z,7.90
2022-11-16T07:12:05.167Z,7.90
2022-11-16T07:14:32.824Z,7.90
2022-11-16T07:17:02.932Z,7.90
2022-11-16T07:19:36.682Z,7.90
2022-11-16T07:22:04.460Z,8.00
2022-11-16T07:24:32.115Z,8.00
2022-11-16T07:26:59.796Z,7.90
2022-11-16T07:29:29.262Z,8.00
2022-11-16T07:31:56.941Z,7.90
2022-11-16T07:34:24.633Z,7.90
2022-11-16T07:36:52.343Z,7.90
2022-11-16T07:39:21.840Z,7.90
2022-11-16T07:41:53.029Z,7.90
2022-11-16T07:44:20.732Z,7.80
2022-11-16T07:46:49.814Z,7.80
2022-11-16T07:49:18.945Z,7.90
2022-11-16T07:51:47.557Z,7.90
2022-11-16T07:54:16.259Z,7.80
2022-11-16T07:56:46.613Z,7.80
2022-11-16T07:59:14.769Z,7.80
2022-11-16T08:01:43.191Z,7.80
2022-11-16T08:04:12.280Z,7.80
2022-11-16T08:06:39.977Z,7.80
2022-11-16T08:09:07.675Z,7.90
2022-11-16T08:11:35.360Z,7.90
2022-11-16T08:14:02.994Z,7.90
2022-11-16T08:16:33.232Z,7.90
2022-11-16T08:19:02.266Z,7.90
2022-11-16T08:21:31.432Z,7.90
2022-11-16T08:23:59.276Z,7.90
2022-11-16T08:26:27.587Z,7.80
2022-11-16T08:28:56.599Z,7.80
2022-11-16T08:31:26.034Z,7.90
2022-11-16T08:33:53.688Z,7.80
2022-11-16T08:36:21.579Z,7.80
2022-11-16T08:38:51.160Z,7.80
2022-11-16T08:41:19.402Z,7.90
2022-11-16T08:43:47.515Z,7.90
2022-11-16T08:46:15.715Z,7.90
2022-11-16T08:48:43.707Z,7.90
2022-11-16T08:51:20.139Z,7.90
2022-11-16T08:53:50.201Z,7.90
2022-11-16T08:56:18.771Z,7.90
2022-11-16T08:58:47.258Z,7.90
2022-11-16T09:01:17.209Z,7.80
2022-11-16T09:03:45.214Z,7.90
2022-11-16T09:06:13.400Z,7.90
2022-11-16T09:08:42.258Z,8.00
2022-11-16T09:11:12.510Z,8.00
2022-11-16T09:13:40.382Z,7.90
2022-11-16T09:16:08.551Z,7.90
2022-11-16T09:18:36.617Z,7.90
2022-11-16T09:21:04.477Z,7.90
2022-11-16T09:23:32.134Z,7.90
2022-11-16T09:26:01.667Z,7.90
2022-11-16T09:28:30.846Z,7.90
2022-11-16T09:31:00.272Z,7.90
2022-11-16T09:33:29.141Z,8.00
2022-11-16T09:35:56.833Z,8.00
2022-11-16T09:38:40.304Z,8.00
2022-11-16T09:41:20.830Z,8.00
2022-11-16T09:43:53.686Z,8.00
2022-11-16T09:46:23.661Z,8.00
2022-11-16T09:48:52.053Z,8.00
2022-11-16T09:51:22.101Z,8.00
2022-11-16T09:53:52.324Z,8.00
2022-11-16T09:56:22.548Z,8.00
2022-11-16T09:58:55.428Z,8.00
2022-11-16T10:01:24.842Z,8.00
2022-11-16T10:03:53.963Z,8.00
2022-11-16T10:06:23.064Z,8.00
2022-11-16T10:08:51.612Z,7.90
2022-11-16T10:11:27.221Z,7.90
2022-11-16T10:14:04.202Z,8.00
2022-11-16T10:16:36.449Z,8.00
2022-11-16T10:19:07.469Z,8.00
2022-11-16T10:21:38.527Z,7.90
2022-11-16T10:24:18.540Z,8.00
2022-11-16T10:26:50.188Z,7.90
2022-11-16T10:29:33.512Z,8.00
2022-11-16T10:32:08.228Z,8.00
2022-11-16T10:34:40.836Z,8.00
2022-11-16T10:37:10.342Z,8.10
2022-11-16T10:39:40.947Z,8.00
2022-11-16T10:42:12.416Z,8.00
2022-11-16T10:44:42.845Z,8.00
2022-11-16T10:47:15.743Z,8.10
2022-11-16T10:49:48.882Z,8.00
2022-11-16T10:52:16.588Z,8.00
2022-11-16T10:54:44.726Z,8.00
2022-11-16T10:57:14.094Z,8.10
2022-11-16T10:59:44.520Z,8.10
2022-11-16T11:02:27.485Z,8.10
2022-11-16T11:05:02.385Z,8.10
2022-11-16T11:07:31.181Z,8.10
2022-11-16T11:09:59.341Z,8.20
2022-11-16T11:12:39.611Z,8.20
2022-11-16T11:15:25.573Z,8.20
2022-11-16T11:18:08.919Z,8.20
2022-11-16T11:20:40.298Z,8.20
2022-11-16T11:23:16.388Z,8.20
2022-11-16T11:25:50.562Z,8.20
2022-11-16T11:28:22.820Z,8.20
2022-11-16T11:30:56.939Z,8.20
2022-11-16T11:33:25.554Z,8.20
2022-11-16T11:35:58.187Z,8.20
2022-11-16T11:38:26.385Z,8.30
2022-11-16T11:40:58.683Z,8.30
2022-11-16T11:43:26.495Z,8.30
2022-11-16T11:45:57.735Z,8.30
2022-11-16T11:48:30.734Z,8.30
2022-11-16T11:50:59.884Z,8.30
2022-11-16T11:53:53.584Z,8.30
2022-11-16T11:56:21.360Z,8.30
2022-11-16T11:58:49.359Z,8.30
2022-11-16T12:01:37.826Z,8.30
2022-11-16T12:04:20.400Z,8.30
2022-11-16T12:06:49.800Z,8.30
2022-11-16T12:09:23.465Z,8.30
2022-11-16T12:12:11.800Z,8.40
2022-11-16T12:14:51.807Z,8.40
2022-11-16T12:17:24.966Z,8.40
2022-11-16T12:20:13.466Z,8.40
2022-11-16T12:22:52.108Z,8.40
2022-11-16T12:25:24.955Z,8.30
2022-11-16T12:27:57.728Z,8.30
2022-11-16T12:30:25.853Z,8.30
2022-11-16T12:33:00.757Z,8.40
2022-11-16T12:35:52.594Z,8.40
2022-11-16T12:38:31.909Z,8.40
2022-11-16T12:41:06.525Z,8.30
2022-11-16T12:43:37.380Z,8.30
2022-11-16T12:46:11.207Z,8.40
2022-11-16T12:48:52.523Z,8.40
2022-11-16T12:51:31.552Z,8.30
2022-11-16T12:54:06.319Z,8.30
2022-11-16T12:56:37.938Z,8.30
2022-11-16T12:59:26.311Z,8.30
2022-11-16T13:02:00.720Z,8.30
2022-11-16T13:04:32.998Z,8.30
2022-11-16T13:07:09.296Z,8.30
2022-11-16T13:09:41.537Z,8.30
2022-11-16T13:12:14.180Z,8.20
2022-11-16T13:14:43.687Z,8.20
2022-11-16T13:17:14.258Z,8.20
2022-11-16T13:19:46.754Z,8.20
2022-11-16T13:22:18.762Z,8.20
2022-11-16T13:24:50.538Z,8.20
2022-11-16T13:27:23.446Z,8.20
2022-11-16T13:29:54.704Z,8.20
2022-11-16T13:32:25.486Z,8.20
2022-11-16T13:34:54.817Z,8.20
2022-11-16T13:37:41.236Z,8.20
2022-11-16T13:40:20.711Z,8.20
2022-11-16T13:42:59.441Z,8.20
2022-11-16T13:45:29.215Z,8.10
2022-11-16T13:47:59.515Z,8.10
2022-11-16T13:50:37.250Z,8.10
2022-11-16T13:55:59.465Z,8.00
2022-11-16T13:58:28.670Z,8.10
2022-11-16T14:00:58.633Z,8.10
2022-11-16T14:03:31.885Z,8.10
2022-11-16T14:06:01.185Z,8.10
2022-11-16T14:08:43.764Z,8.00
2022-11-16T14:11:26.327Z,8.10
2022-11-16T14:13:54.020Z,8.20
2022-11-16T14:16:36.545Z,8.10
2022-11-16T14:19:05.865Z,8.10
2022-11-16T14:21:42.645Z,8.00
2022-11-16T14:24:20.177Z,8.00
2022-11-16T14:26:52.223Z,8.00
2022-11-16T14:29:42.553Z,8.00
2022-11-16T14:32:18.752Z,8.00
2022-11-16T14:34:48.080Z,8.00
2022-11-16T14:37:32.279Z,8.00
2022-11-16T14:40:02.692Z,8.10
2022-11-16T14:42:48.100Z,8.00
2022-11-16T14:45:23.722Z,8.00
2022-11-16T14:47:51.714Z,8.00
2022-11-16T14:50:20.258Z,8.00
2022-11-16T14:52:50.201Z,8.00
2022-11-16T14:55:20.999Z,8.00
2022-11-16T14:57:48.738Z,8.00
2022-11-16T15:00:25.668Z,8.00
2022-11-16T15:02:59.117Z,8.00
2022-11-16T15:05:31.064Z,8.00
2022-11-16T15:08:00.645Z,8.00
2022-11-16T15:10:30.121Z,8.00
2022-11-16T15:12:57.974Z,7.90
2022-11-16T15:15:26.966Z,7.90
2022-11-16T15:18:06.972Z,7.90
2022-11-16T15:20:35.392Z,7.90
2022-11-16T15:23:04.182Z,7.90
2022-11-16T15:25:34.621Z,7.90
2022-11-16T15:28:03.691Z,7.90
2022-11-16T15:30:32.967Z,7.90
2022-11-16T15:33:02.543Z,7.90
2022-11-16T15:35:31.185Z,7.90
2022-11-16T15:38:02.836Z,7.90
2022-11-16T15:40:31.428Z,7.80
2022-11-16T15:43:01.452Z,7.90
2022-11-16T15:45:30.864Z,7.90
2022-11-16T15:48:00.510Z,7.90
2022-11-16T15:50:29.082Z,7.90
2022-11-16T15:52:58.054Z,7.90
2022-11-16T15:55:31.754Z,7.90
2022-11-16T15:58:02.848Z,7.90
2022-11-16T16:00:31.402Z,7.90
2022-11-16T16:03:02.216Z,7.90
2022-11-16T16:05:40.696Z,7.90
2022-11-16T16:08:24.338Z,7.90
2022-11-16T16:10:58.140Z,7.90
2022-11-16T16:13:28.881Z,7.90
2022-11-16T16:16:12.168Z,8.00
2022-11-16T16:18:43.027Z,7.90
2022-11-16T16:21:10.741Z,7.90
2022-11-16T16:23:44.645Z,7.90
2022-11-16T16:26:12.306Z,7.90
2022-11-16T16:28:41.372Z,7.90
2022-11-16T16:31:09.290Z,7.90
2022-11-16T16:33:37.364Z,7.90
2022-11-16T16:36:05.606Z,7.90
2022-11-16T16:38:33.484Z,7.90
2022-11-16T16:41:02.890Z,7.90
2022-11-16T16:43:30.635Z,7.90
2022-11-16T16:46:01.083Z,7.90
2022-11-16T16:48:28.875Z,7.90
2022-11-16T16:50:56.554Z,7.80
2022-11-16T16:53:24.217Z,7.90
2022-11-16T16:55:51.974Z,7.90
2022-11-16T16:58:19.737Z,7.90
2022-11-16T17:00:47.472Z,7.90
2022-11-16T17:03:16.507Z,7.80
2022-11-16T17:05:44.565Z,7.90
2022-11-16T17:08:12.268Z,7.80
2022-11-16T17:10:39.974Z,7.80
2022-11-16T17:13:07.667Z,7.80
2022-11-16T17:15:35.333Z,7.80
2022-11-16T17:18:04.343Z,7.80
2022-11-16T17:20:33.528Z,7.80
2022-11-16T17:23:01.224Z,7.80
2022-11-16T17:25:30.157Z,7.80
2022-11-16T17:27:57.813Z,7.80
2022-11-16T17:30:25.498Z,7.90
2022-11-16T17:32:53.160Z,7.90
2022-11-16T17:35:20.824Z,7.90
2022-11-16T17:37:49.918Z,7.90
2022-11-16T17:40:17.688Z,7.90
2022-11-16T17:42:45.427Z,7.80
2022-11-16T17:45:13.110Z,7.80
2022-11-16T17:47:41.040Z,7.90
2022-11-16T17:50:09.440Z,7.70
2022-11-16T17:52:37.126Z,7.70
2022-11-16T17:55:06.606Z,7.70
2022-11-16T17:57:34.293Z,7.70
2022-11-16T18:00:01.948Z,7.80
2022-11-16T18:02:29.653Z,7.80
2022-11-16T18:04:57.309Z,7.70
2022-11-16T18:07:25.069Z,7.80
2022-11-16T18:09:52.749Z,7.70
2022-11-16T18:12:21.723Z,7.70
2022-11-16T18:15:13.469Z,7.70
2022-11-16T18:17:37.016Z,7.70
2022-11-16T18:20:04.914Z,7.70
2022-11-16T18:22:32.581Z,7.70
2022-11-16T18:25:00.769Z,7.60
2022-11-16T18:27:30.362Z,7.60
2022-11-16T18:29:58.041Z,7.70
2022-11-16T18:32:25.725Z,7.70
2022-11-16T18:34:53.497Z,7.70
2022-11-16T18:37:21.188Z,7.60
2022-11-16T18:39:48.960Z,7.60
2022-11-16T18:42:16.625Z,7.60
2022-11-16T18:44:46.409Z,7.50
2022-11-16T18:47:14.089Z,7.50
2022-11-16T18:49:41.817Z,7.50
2022-11-16T18:52:09.500Z,7.40
2022-11-16T18:54:37.186Z,7.40
2022-11-16T18:57:04.924Z,7.50
2022-11-16T18:59:32.645Z,7.50
2022-11-16T19:02:01.696Z,7.50
2022-11-16T19:04:29.507Z,7.50
2022-11-16T19:06:57.210Z,7.40
2022-11-16T19:09:24.879Z,7.40
2022-11-16T19:11:52.557Z,7.50
2022-11-16T19:14:20.200Z,7.50
2022-11-16T19:16:54.054Z,7.50
2022-11-16T19:19:25.318Z,7.40
2022-11-16T19:21:53.108Z,7.50
2022-11-16T19:24:20.774Z,7.40
2022-11-16T19:26:48.746Z,7.40
2022-11-16T19:29:16.413Z,7.40
2022-11-16T19:31:44.092Z,7.30
2022-11-16T19:34:12.755Z,7.40
2022-11-16T19:36:41.714Z,7.40
2022-11-16T19:39:09.396Z,7.40
2022-11-16T19:41:37.048Z,7.40
2022-11-16T19:44:04.770Z,7.40
2022-11-16T19:46:33.769Z,7.40
2022-11-16T19:49:01.586Z,7.40
2022-11-16T19:51:29.765Z,7.50
2022-11-16T19:53:59.246Z,7.50
2022-11-16T19:56:26.941Z,7.50
2022-11-16T19:58:54.821Z,7.40
2022-11-16T20:01:23.488Z,7.40
2022-11-16T20:03:51.197Z,7.40
2022-11-16T20:06:19.966Z,7.40
2022-11-16T20:08:48.664Z,7.50
2022-11-16T20:11:18.429Z,7.40
2022-11-16T20:13:46.086Z,7.40
2022-11-16T20:16:14.044Z,7.40
2022-11-16T20:18:43.628Z,7.40
2022-11-16T20:21:13.634Z,7.40
2022-11-16T20:23:41.320Z,7.30
2022-11-16T20:26:10.381Z,7.30
2022-11-16T20:28:40.252Z,7.40
2022-11-16T20:31:09.776Z,7.30
2022-11-16T20:33:37.752Z,7.30
2022-11-16T20:36:06.729Z,7.30
2022-11-16T20:38:34.711Z,7.30
2022-11-16T20:41:08.369Z,7.30
2022-11-16T20:43:36.345Z,7.30
2022-11-16T20:46:05.893Z,7.30
2022-11-16T20:48:33.580Z,7.30
2022-11-16T20:51:01.238Z,7.30
2022-11-16T20:53:28.974Z,7.30
2022-11-16T20:55:57.409Z,7.30
2022-11-16T20:58:25.377Z,7.30
2022-11-16T21:00:53.078Z,7.30
2022-11-16T21:03:22.144Z,7.20
2022-11-16T21:05:51.822Z,7.30
2022-11-16T21:08:19.544Z,7.30
2022-11-16T21:10:48.260Z,7.20
2022-11-16T21:13:34.379Z,7.20
2022-11-16T21:16:03.102Z,7.20
2022-11-16T21:18:32.522Z,7.20
2022-11-16T21:21:00.523Z,7.20
2022-11-16T21:23:28.957Z,7.20
2022-11-16T21:25:56.845Z,7.10
2022-11-16T21:28:25.749Z,7.20
2022-11-16T21:30:57.067Z,7.20
2022-11-16T21:33:24.931Z,7.20
2022-11-16T21:35:54.431Z,7.10
2022-11-16T21:38:22.360Z,7.20
2022-11-16T21:40:50.210Z,7.20
2022-11-16T21:43:18.207Z,7.20
2022-11-16T21:45:46.490Z,7.20
2022-11-16T21:48:14.220Z,7.10
2022-11-16T21:50:42.028Z,7.10
2022-11-16T21:53:11.259Z,7.10
2022-11-16T21:55:38.936Z,7.10
2022-11-16T21:58:06.568Z,7.10
2022-11-16T22:00:34.288Z,7.10
2022-11-16T22:03:01.941Z,7.10
2022-11-16T22:05:47.415Z,7.10
2022-11-16T22:08:16.453Z,7.10
2022-11-16T22:10:44.121Z,7.10
2022-11-16T22:13:11.775Z,7.00
2022-11-16T22:15:39.428Z,7.00
2022-11-16T22:18:07.128Z,7.00
2022-11-16T22:20:34.832Z,7.00
2022-11-16T22:23:02.524Z,7.00
2022-11-16T22:25:31.593Z,7.00
2022-11-16T22:28:19.618Z,7.00
2022-11-16T22:30:51.384Z,7.00
2022-11-16T22:33:19.808Z,7.00
2022-11-16T22:35:47.871Z,6.90
2022-11-16T22:38:15.527Z,6.90
2022-11-16T22:40:51.226Z,7.00
2022-11-16T22:43:19.133Z,7.00
2022-11-16T22:45:47.093Z,6.90
2022-11-16T22:48:17.866Z,7.10
2022-11-16T22:50:45.561Z,7.00
2022-11-16T22:53:13.349Z,7.00
2022-11-16T22:55:41.362Z,6.90
2022-11-16T22:58:10.376Z,6.90
2022-11-16T23:00:41.937Z,7.00
2022-11-16T23:03:10.159Z,6.90
2022-11-16T23:05:37.862Z,6.90
2022-11-16T23:08:05.743Z,6.90
2022-11-16T23:10:53.373Z,6.90
2022-11-16T23:13:39.964Z,7.00
2022-11-16T23:16:07.849Z,6.90
2022-11-16T23:18:35.517Z,6.90
2022-11-16T23:21:20.926Z,6.90
2022-11-16T23:24:20.507Z,6.90
2022-11-16T23:27:20.337Z,6.90
2022-11-16T23:29:49.603Z,6.90
2022-11-16T23:32:17.314Z,6.90
2022-11-16T23:34:45.036Z,7.00
2022-11-16T23:37:12.727Z,7.00
2022-11-16T23:39:40.378Z,6.90
2022-11-16T23:42:26.319Z,6.90
2022-11-16T23:44:55.318Z,6.80
2022-11-16T23:47:23.331Z,6.90
2022-11-16T23:49:51.015Z,6.90
2022-11-16T23:52:18.676Z,6.90
2022-11-16T23:54:46.339Z,6.90
2022-11-16T23:57:14.083Z,6.80
2022-11-16T23:59:41.724Z,6.80
